sensor_id;sensor_type;location;lat;lon;timestamp;P1;durP1;ratioP1;P2;durP2;ratioP2
20008;SDS011;10165;42.662;23.260;2024-03-23T00:55:53;4.07;;;2.87;;
20008;SDS011;10165;42.662;23.260;2024-03-23T00:58:18;2.90;;;2.43;;
20008;SDS011;10165;42.662;23.260;2024-03-23T01:00:44;3.80;;;2.60;;
20008;SDS011;10165;42.662;23.260;2024-03-23T01:03:10;4.93;;;2.53;;
20008;SDS011;10165;42.662;23.260;2024-03-23T01:05:35;5.13;;;3.13;;
20008;SDS011;10165;42.662;23.260;2024-03-23T01:08:01;4.70;;;3.17;;
20008;SDS011;10165;42.662;23.260;2024-03-23T01:10:27;6.93;;;3.50;;
20008;SDS011;10165;42.662;23.260;2024-03-23T01:12:53;3.37;;;2.50;;
20008;SDS011;10165;42.662;23.260;2024-03-23T01:15:19;5.00;;;2.97;;
20008;SDS011;10165;42.662;23.260;2024-03-23T01:17:44;6.37;;;3.43;;
20008;SDS011;10165;42.662;23.260;2024-03-23T01:20:10;4.63;;;3.27;;
20008;SDS011;10165;42.662;23.260;2024-03-23T01:22:36;3.97;;;2.97;;
20008;SDS011;10165;42.662;23.260;2024-03-23T01:25:01;4.73;;;2.60;;
20008;SDS011;10165;42.662;23.260;2024-03-23T01:27:27;2.73;;;2.30;;
20008;SDS011;10165;42.662;23.260;2024-03-23T01:29:53;5.10;;;2.63;;
20008;SDS011;10165;42.662;23.260;2024-03-23T01:32:18;2.23;;;1.87;;
20008;SDS011;10165;42.662;23.260;2024-03-23T01:34:44;4.80;;;2.67;;
20008;SDS011;10165;42.662;23.260;2024-03-23T01:37:10;6.03;;;3.03;;
20008;SDS011;10165;42.662;23.260;2024-03-23T01:39:36;3.90;;;2.43;;
20008;SDS011;10165;42.662;23.260;2024-03-23T01:42:01;5.27;;;3.10;;
20008;SDS011;10165;42.662;23.260;2024-03-23T01:44:27;6.10;;;3.27;;
20008;SDS011;10165;42.662;23.260;2024-03-23T01:46:53;6.37;;;2.83;;
20008;SDS011;10165;42.662;23.260;2024-03-23T01:49:19;4.90;;;2.57;;
20008;SDS011;10165;42.662;23.260;2024-03-23T01:51:45;4.33;;;2.10;;
20008;SDS011;10165;42.662;23.260;2024-03-23T01:54:13;5.30;;;2.50;;
20008;SDS011;10165;42.662;23.260;2024-03-23T01:56:39;10.87;;;5.73;;
20008;SDS011;10165;42.662;23.260;2024-03-23T01:59:05;14.70;;;4.07;;
20008;SDS011;10165;42.662;23.260;2024-03-23T02:01:32;9.13;;;3.77;;
20008;SDS011;10165;42.662;23.260;2024-03-23T02:03:58;9.20;;;3.73;;
20008;SDS011;10165;42.662;23.260;2024-03-23T02:06:24;7.10;;;3.83;;
20008;SDS011;10165;42.662;23.260;2024-03-23T02:08:50;7.83;;;3.83;;
20008;SDS011;10165;42.662;23.260;2024-03-23T02:11:16;10.30;;;3.97;;
20008;SDS011;10165;42.662;23.260;2024-03-23T02:13:42;3.57;;;2.57;;
20008;SDS011;10165;42.662;23.260;2024-03-23T02:16:08;8.97;;;2.90;;
20008;SDS011;10165;42.662;23.260;2024-03-23T02:18:34;3.03;;;2.30;;
20008;SDS011;10165;42.662;23.260;2024-03-23T02:20:59;4.33;;;2.60;;
20008;SDS011;10165;42.662;23.260;2024-03-23T02:23:25;4.70;;;2.37;;
20008;SDS011;10165;42.662;23.260;2024-03-23T02:25:51;8.40;;;3.87;;
20008;SDS011;10165;42.662;23.260;2024-03-23T02:28:18;10.63;;;5.30;;
20008;SDS011;10165;42.662;23.260;2024-03-23T02:30:45;9.43;;;4.43;;
20008;SDS011;10165;42.662;23.260;2024-03-23T02:33:10;8.13;;;3.87;;
20008;SDS011;10165;42.662;23.260;2024-03-23T02:35:36;8.27;;;4.37;;
20008;SDS011;10165;42.662;23.260;2024-03-23T02:38:02;9.03;;;5.40;;
20008;SDS011;10165;42.662;23.260;2024-03-23T02:40:28;11.60;;;5.87;;
20008;SDS011;10165;42.662;23.260;2024-03-23T02:42:54;10.87;;;5.70;;
20008;SDS011;10165;42.662;23.260;2024-03-23T02:45:20;10.83;;;6.17;;
20008;SDS011;10165;42.662;23.260;2024-03-23T02:47:46;8.43;;;4.60;;
20008;SDS011;10165;42.662;23.260;2024-03-23T02:50:11;7.17;;;4.80;;
20008;SDS011;10165;42.662;23.260;2024-03-23T02:52:37;13.30;;;5.63;;
20008;SDS011;10165;42.662;23.260;2024-03-23T02:55:03;9.80;;;4.67;;
20008;SDS011;10165;42.662;23.260;2024-03-23T02:57:32;7.17;;;4.73;;
20008;SDS011;10165;42.662;23.260;2024-03-23T02:59:58;6.17;;;5.27;;
20008;SDS011;10165;42.662;23.260;2024-03-23T03:02:24;8.70;;;5.23;;
20008;SDS011;10165;42.662;23.260;2024-03-23T03:04:50;7.77;;;4.47;;
20008;SDS011;10165;42.662;23.260;2024-03-23T03:07:15;7.03;;;4.80;;
20008;SDS011;10165;42.662;23.260;2024-03-23T03:09:41;9.63;;;4.93;;
20008;SDS011;10165;42.662;23.260;2024-03-23T03:12:06;8.13;;;5.43;;
20008;SDS011;10165;42.662;23.260;2024-03-23T03:14:32;10.03;;;4.07;;
20008;SDS011;10165;42.662;23.260;2024-03-23T03:16:59;7.73;;;4.13;;
20008;SDS011;10165;42.662;23.260;2024-03-23T03:19:24;8.53;;;3.73;;
20008;SDS011;10165;42.662;23.260;2024-03-23T03:21:50;9.33;;;4.00;;
20008;SDS011;10165;42.662;23.260;2024-03-23T03:24:15;5.77;;;3.60;;
20008;SDS011;10165;42.662;23.260;2024-03-23T03:26:42;8.43;;;4.30;;
20008;SDS011;10165;42.662;23.260;2024-03-23T03:29:08;6.80;;;4.40;;
20008;SDS011;10165;42.662;23.260;2024-03-23T03:31:33;7.00;;;3.57;;
20008;SDS011;10165;42.662;23.260;2024-03-23T03:33:59;7.13;;;3.33;;
20008;SDS011;10165;42.662;23.260;2024-03-23T03:36:25;5.87;;;3.80;;
20008;SDS011;10165;42.662;23.260;2024-03-23T03:38:50;4.47;;;3.03;;
20008;SDS011;10165;42.662;23.260;2024-03-23T03:41:16;10.57;;;3.67;;
20008;SDS011;10165;42.662;23.260;2024-03-23T03:43:42;6.20;;;3.60;;
20008;SDS011;10165;42.662;23.260;2024-03-23T03:46:07;5.47;;;3.60;;
20008;SDS011;10165;42.662;23.260;2024-03-23T03:48:33;5.53;;;2.90;;
20008;SDS011;10165;42.662;23.260;2024-03-23T03:50:59;9.20;;;4.67;;
20008;SDS011;10165;42.662;23.260;2024-03-23T03:53:25;7.13;;;3.40;;
20008;SDS011;10165;42.662;23.260;2024-03-23T03:55:51;6.70;;;3.47;;
20008;SDS011;10165;42.662;23.260;2024-03-23T03:58:17;4.50;;;3.77;;
20008;SDS011;10165;42.662;23.260;2024-03-23T04:00:43;5.93;;;4.07;;
20008;SDS011;10165;42.662;23.260;2024-03-23T04:03:09;6.33;;;3.80;;
20008;SDS011;10165;42.662;23.260;2024-03-23T04:05:34;8.47;;;4.43;;
20008;SDS011;10165;42.662;23.260;2024-03-23T04:08:00;8.60;;;3.57;;
20008;SDS011;10165;42.662;23.260;2024-03-23T04:10:26;5.63;;;3.20;;
20008;SDS011;10165;42.662;23.260;2024-03-23T04:12:52;5.30;;;3.67;;
20008;SDS011;10165;42.662;23.260;2024-03-23T04:15:19;5.30;;;3.43;;
20008;SDS011;10165;42.662;23.260;2024-03-23T04:17:45;10.97;;;4.80;;
20008;SDS011;10165;42.662;23.260;2024-03-23T04:20:11;6.43;;;4.30;;
20008;SDS011;10165;42.662;23.260;2024-03-23T04:22:39;7.10;;;3.57;;
20008;SDS011;10165;42.662;23.260;2024-03-23T04:25:05;5.00;;;3.03;;
20008;SDS011;10165;42.662;23.260;2024-03-23T04:27:36;8.17;;;3.83;;
20008;SDS011;10165;42.662;23.260;2024-03-23T04:30:02;9.30;;;4.07;;
20008;SDS011;10165;42.662;23.260;2024-03-23T04:32:31;5.03;;;3.30;;
20008;SDS011;10165;42.662;23.260;2024-03-23T04:34:56;6.77;;;3.80;;
20008;SDS011;10165;42.662;23.260;2024-03-23T04:37:22;3.33;;;2.57;;
20008;SDS011;10165;42.662;23.260;2024-03-23T04:39:48;4.77;;;3.23;;
20008;SDS011;10165;42.662;23.260;2024-03-23T04:42:15;4.33;;;3.00;;
20008;SDS011;10165;42.662;23.260;2024-03-23T04:44:41;5.53;;;2.70;;
20008;SDS011;10165;42.662;23.260;2024-03-23T04:47:07;4.37;;;2.70;;
20008;SDS011;10165;42.662;23.260;2024-03-23T04:49:33;4.33;;;3.10;;
20008;SDS011;10165;42.662;23.260;2024-03-23T04:51:58;4.80;;;3.17;;
20008;SDS011;10165;42.662;23.260;2024-03-23T04:54:24;5.23;;;3.53;;
20008;SDS011;10165;42.662;23.260;2024-03-23T04:56:49;3.93;;;2.63;;
20008;SDS011;10165;42.662;23.260;2024-03-23T04:59:15;6.43;;;3.23;;
20008;SDS011;10165;42.662;23.260;2024-03-23T05:01:41;5.63;;;2.83;;
20008;SDS011;10165;42.662;23.260;2024-03-23T05:04:08;5.43;;;3.60;;
20008;SDS011;10165;42.662;23.260;2024-03-23T05:06:34;5.47;;;3.63;;
20008;SDS011;10165;42.662;23.260;2024-03-23T05:09:00;8.30;;;4.00;;
20008;SDS011;10165;42.662;23.260;2024-03-23T05:11:33;6.67;;;4.00;;
20008;SDS011;10165;42.662;23.260;2024-03-23T05:13:59;3.50;;;2.47;;
20008;SDS011;10165;42.662;23.260;2024-03-23T05:16:25;5.97;;;4.03;;
20008;SDS011;10165;42.662;23.260;2024-03-23T05:18:51;6.27;;;3.63;;
20008;SDS011;10165;42.662;23.260;2024-03-23T05:21:17;4.27;;;3.37;;
20008;SDS011;10165;42.662;23.260;2024-03-23T05:23:43;4.23;;;3.10;;
20008;SDS011;10165;42.662;23.260;2024-03-23T05:26:09;9.00;;;3.57;;
20008;SDS011;10165;42.662;23.260;2024-03-23T05:28:41;9.10;;;3.73;;
20008;SDS011;10165;42.662;23.260;2024-03-23T05:31:07;8.40;;;4.33;;
20008;SDS011;10165;42.662;23.260;2024-03-23T05:33:34;7.33;;;4.00;;
20008;SDS011;10165;42.662;23.260;2024-03-23T05:36:03;8.30;;;5.07;;
20008;SDS011;10165;42.662;23.260;2024-03-23T05:38:32;8.70;;;5.13;;
20008;SDS011;10165;42.662;23.260;2024-03-23T05:40:58;10.33;;;5.53;;
20008;SDS011;10165;42.662;23.260;2024-03-23T05:43:25;10.23;;;4.90;;
20008;SDS011;10165;42.662;23.260;2024-03-23T05:45:58;7.23;;;4.57;;
20008;SDS011;10165;42.662;23.260;2024-03-23T05:48:25;11.33;;;5.43;;
20008;SDS011;10165;42.662;23.260;2024-03-23T05:50:51;9.63;;;5.63;;
20008;SDS011;10165;42.662;23.260;2024-03-23T05:53:18;8.70;;;5.10;;
20008;SDS011;10165;42.662;23.260;2024-03-23T05:55:45;9.63;;;5.37;;
20008;SDS011;10165;42.662;23.260;2024-03-23T05:58:14;9.63;;;4.23;;
20008;SDS011;10165;42.662;23.260;2024-03-23T06:00:40;11.80;;;5.57;;
20008;SDS011;10165;42.662;23.260;2024-03-23T06:03:07;8.17;;;4.50;;
20008;SDS011;10165;42.662;23.260;2024-03-23T06:05:32;7.33;;;5.00;;
20008;SDS011;10165;42.662;23.260;2024-03-23T06:07:58;9.83;;;4.90;;
20008;SDS011;10165;42.662;23.260;2024-03-23T06:10:24;8.07;;;5.20;;
20008;SDS011;10165;42.662;23.260;2024-03-23T06:12:49;8.67;;;5.47;;
20008;SDS011;10165;42.662;23.260;2024-03-23T06:15:20;11.27;;;5.00;;
20008;SDS011;10165;42.662;23.260;2024-03-23T06:17:48;8.43;;;4.53;;
20008;SDS011;10165;42.662;23.260;2024-03-23T06:20:14;18.23;;;5.57;;
20008;SDS011;10165;42.662;23.260;2024-03-23T06:22:40;8.60;;;5.30;;
20008;SDS011;10165;42.662;23.260;2024-03-23T06:25:06;12.77;;;6.13;;
20008;SDS011;10165;42.662;23.260;2024-03-23T06:27:32;10.47;;;6.20;;
20008;SDS011;10165;42.662;23.260;2024-03-23T06:29:58;9.53;;;5.57;;
20008;SDS011;10165;42.662;23.260;2024-03-23T06:32:25;10.33;;;5.30;;
20008;SDS011;10165;42.662;23.260;2024-03-23T06:34:50;9.13;;;5.80;;
20008;SDS011;10165;42.662;23.260;2024-03-23T06:37:16;9.80;;;5.40;;
20008;SDS011;10165;42.662;23.260;2024-03-23T06:39:42;7.60;;;5.30;;
20008;SDS011;10165;42.662;23.260;2024-03-23T06:42:07;8.77;;;5.23;;
20008;SDS011;10165;42.662;23.260;2024-03-23T06:44:33;10.53;;;5.40;;
20008;SDS011;10165;42.662;23.260;2024-03-23T06:46:59;8.77;;;4.80;;
20008;SDS011;10165;42.662;23.260;2024-03-23T06:49:25;8.90;;;4.83;;
20008;SDS011;10165;42.662;23.260;2024-03-23T06:51:50;6.67;;;4.60;;
20008;SDS011;10165;42.662;23.260;2024-03-23T06:54:16;6.33;;;4.30;;
20008;SDS011;10165;42.662;23.260;2024-03-23T06:56:46;19.80;;;6.43;;
20008;SDS011;10165;42.662;23.260;2024-03-23T06:59:12;8.80;;;5.37;;
20008;SDS011;10165;42.662;23.260;2024-03-23T07:01:38;6.93;;;4.47;;
20008;SDS011;10165;42.662;23.260;2024-03-23T07:04:03;9.63;;;5.30;;
20008;SDS011;10165;42.662;23.260;2024-03-23T07:06:30;8.77;;;5.87;;
20008;SDS011;10165;42.662;23.260;2024-03-23T07:08:56;18.90;;;9.17;;
20008;SDS011;10165;42.662;23.260;2024-03-23T07:11:22;21.10;;;6.27;;
20008;SDS011;10165;42.662;23.260;2024-03-23T07:13:52;11.73;;;5.97;;
20008;SDS011;10165;42.662;23.260;2024-03-23T07:16:22;14.80;;;7.63;;
20008;SDS011;10165;42.662;23.260;2024-03-23T07:18:47;7.40;;;5.93;;
20008;SDS011;10165;42.662;23.260;2024-03-23T07:21:15;7.47;;;4.80;;
20008;SDS011;10165;42.662;23.260;2024-03-23T07:23:43;7.20;;;4.97;;
20008;SDS011;10165;42.662;23.260;2024-03-23T07:26:12;11.23;;;5.43;;
20008;SDS011;10165;42.662;23.260;2024-03-23T07:28:38;9.20;;;4.87;;
20008;SDS011;10165;42.662;23.260;2024-03-23T07:31:08;8.40;;;5.50;;
20008;SDS011;10165;42.662;23.260;2024-03-23T07:33:36;11.47;;;5.63;;
20008;SDS011;10165;42.662;23.260;2024-03-23T07:36:06;7.33;;;4.47;;
20008;SDS011;10165;42.662;23.260;2024-03-23T07:38:32;22.90;;;9.37;;
20008;SDS011;10165;42.662;23.260;2024-03-23T07:41:08;9.10;;;5.57;;
20008;SDS011;10165;42.662;23.260;2024-03-23T07:43:35;16.03;;;9.00;;
20008;SDS011;10165;42.662;23.260;2024-03-23T07:46:02;6.93;;;4.67;;
20008;SDS011;10165;42.662;23.260;2024-03-23T07:48:31;21.87;;;5.43;;
20008;SDS011;10165;42.662;23.260;2024-03-23T07:51:01;17.00;;;6.80;;
20008;SDS011;10165;42.662;23.260;2024-03-23T07:53:31;8.20;;;4.70;;
20008;SDS011;10165;42.662;23.260;2024-03-23T07:55:58;10.57;;;6.03;;
20008;SDS011;10165;42.662;23.260;2024-03-23T07:58:25;6.67;;;4.83;;
20008;SDS011;10165;42.662;23.260;2024-03-23T08:00:55;8.50;;;5.20;;
20008;SDS011;10165;42.662;23.260;2024-03-23T08:03:22;6.77;;;4.67;;
20008;SDS011;10165;42.662;23.260;2024-03-23T08:05:48;8.13;;;5.83;;
20008;SDS011;10165;42.662;23.260;2024-03-23T08:08:14;7.60;;;5.20;;
20008;SDS011;10165;42.662;23.260;2024-03-23T08:13:18;13.70;;;5.60;;
20008;SDS011;10165;42.662;23.260;2024-03-23T08:15:44;20.37;;;5.97;;
20008;SDS011;10165;42.662;23.260;2024-03-23T08:18:11;13.37;;;5.50;;
20008;SDS011;10165;42.662;23.260;2024-03-23T08:20:37;14.97;;;7.93;;
20008;SDS011;10165;42.662;23.260;2024-03-23T08:23:03;10.83;;;6.03;;
20008;SDS011;10165;42.662;23.260;2024-03-23T08:25:31;11.90;;;6.27;;
20008;SDS011;10165;42.662;23.260;2024-03-23T08:27:57;8.47;;;4.73;;
20008;SDS011;10165;42.662;23.260;2024-03-23T08:30:23;12.13;;;6.03;;
20008;SDS011;10165;42.662;23.260;2024-03-23T08:32:49;11.33;;;6.40;;
20008;SDS011;10165;42.662;23.260;2024-03-23T08:35:14;10.67;;;6.40;;
20008;SDS011;10165;42.662;23.260;2024-03-23T08:37:40;14.00;;;6.47;;
20008;SDS011;10165;42.662;23.260;2024-03-23T08:40:06;15.03;;;7.17;;
20008;SDS011;10165;42.662;23.260;2024-03-23T08:42:33;14.73;;;6.53;;
20008;SDS011;10165;42.662;23.260;2024-03-23T08:45:00;16.93;;;6.47;;
20008;SDS011;10165;42.662;23.260;2024-03-23T08:47:25;14.00;;;6.93;;
20008;SDS011;10165;42.662;23.260;2024-03-23T08:49:52;9.73;;;5.67;;
20008;SDS011;10165;42.662;23.260;2024-03-23T08:52:17;14.83;;;6.80;;
20008;SDS011;10165;42.662;23.260;2024-03-23T08:54:43;8.63;;;6.53;;
20008;SDS011;10165;42.662;23.260;2024-03-23T08:57:09;12.43;;;6.83;;
20008;SDS011;10165;42.662;23.260;2024-03-23T08:59:34;12.73;;;5.73;;
20008;SDS011;10165;42.662;23.260;2024-03-23T09:02:00;9.67;;;5.63;;
20008;SDS011;10165;42.662;23.260;2024-03-23T09:04:26;16.03;;;6.57;;
20008;SDS011;10165;42.662;23.260;2024-03-23T09:06:52;12.27;;;6.10;;
20008;SDS011;10165;42.662;23.260;2024-03-23T09:09:17;12.10;;;6.43;;
20008;SDS011;10165;42.662;23.260;2024-03-23T09:11:45;9.53;;;5.33;;
20008;SDS011;10165;42.662;23.260;2024-03-23T09:14:11;7.20;;;5.37;;
20008;SDS011;10165;42.662;23.260;2024-03-23T09:16:36;10.60;;;6.10;;
20008;SDS011;10165;42.662;23.260;2024-03-23T09:19:02;12.50;;;5.97;;
20008;SDS011;10165;42.662;23.260;2024-03-23T09:21:28;10.13;;;5.53;;
20008;SDS011;10165;42.662;23.260;2024-03-23T09:23:54;10.93;;;5.87;;
20008;SDS011;10165;42.662;23.260;2024-03-23T09:26:19;10.10;;;6.03;;
20008;SDS011;10165;42.662;23.260;2024-03-23T09:28:47;11.20;;;6.40;;
20008;SDS011;10165;42.662;23.260;2024-03-23T09:31:14;10.93;;;5.80;;
20008;SDS011;10165;42.662;23.260;2024-03-23T09:33:40;10.67;;;6.07;;
20008;SDS011;10165;42.662;23.260;2024-03-23T09:36:06;11.83;;;5.53;;
20008;SDS011;10165;42.662;23.260;2024-03-23T09:38:33;13.67;;;6.57;;
20008;SDS011;10165;42.662;23.260;2024-03-23T09:40:59;13.90;;;6.77;;
20008;SDS011;10165;42.662;23.260;2024-03-23T09:43:25;11.63;;;6.37;;
20008;SDS011;10165;42.662;23.260;2024-03-23T09:45:50;11.83;;;6.47;;
20008;SDS011;10165;42.662;23.260;2024-03-23T09:48:17;12.50;;;8.23;;
20008;SDS011;10165;42.662;23.260;2024-03-23T09:50:44;17.93;;;7.27;;
20008;SDS011;10165;42.662;23.260;2024-03-23T09:53:11;11.00;;;6.70;;
20008;SDS011;10165;42.662;23.260;2024-03-23T09:55:38;17.03;;;7.40;;
20008;SDS011;10165;42.662;23.260;2024-03-23T09:58:04;13.07;;;6.97;;
20008;SDS011;10165;42.662;23.260;2024-03-23T10:00:33;13.67;;;6.03;;
20008;SDS011;10165;42.662;23.260;2024-03-23T10:03:00;9.90;;;5.33;;
20008;SDS011;10165;42.662;23.260;2024-03-23T10:05:31;12.40;;;6.30;;
20008;SDS011;10165;42.662;23.260;2024-03-23T10:07:59;9.03;;;6.00;;
20008;SDS011;10165;42.662;23.260;2024-03-23T10:10:29;8.97;;;5.47;;
20008;SDS011;10165;42.662;23.260;2024-03-23T10:12:55;20.20;;;7.57;;
20008;SDS011;10165;42.662;23.260;2024-03-23T10:15:24;18.93;;;7.57;;
20008;SDS011;10165;42.662;23.260;2024-03-23T10:17:51;11.33;;;5.60;;
20008;SDS011;10165;42.662;23.260;2024-03-23T10:20:21;7.87;;;5.00;;
20008;SDS011;10165;42.662;23.260;2024-03-23T10:22:48;11.57;;;6.27;;
20008;SDS011;10165;42.662;23.260;2024-03-23T10:25:15;26.00;;;6.67;;
20008;SDS011;10165;42.662;23.260;2024-03-23T10:27:41;8.53;;;5.20;;
20008;SDS011;10165;42.662;23.260;2024-03-23T10:30:12;11.47;;;5.80;;
20008;SDS011;10165;42.662;23.260;2024-03-23T10:32:40;8.70;;;4.77;;
20008;SDS011;10165;42.662;23.260;2024-03-23T10:35:16;7.17;;;4.23;;
20008;SDS011;10165;42.662;23.260;2024-03-23T10:37:48;7.13;;;4.07;;
20008;SDS011;10165;42.662;23.260;2024-03-23T10:40:17;12.53;;;4.47;;
20008;SDS011;10165;42.662;23.260;2024-03-23T10:42:46;8.33;;;4.07;;
20008;SDS011;10165;42.662;23.260;2024-03-23T10:45:12;8.17;;;4.37;;
20008;SDS011;10165;42.662;23.260;2024-03-23T10:47:38;8.43;;;4.70;;
20008;SDS011;10165;42.662;23.260;2024-03-23T10:50:03;15.10;;;5.17;;
20008;SDS011;10165;42.662;23.260;2024-03-23T10:52:33;9.37;;;4.47;;
20008;SDS011;10165;42.662;23.260;2024-03-23T10:54:59;9.03;;;4.53;;
20008;SDS011;10165;42.662;23.260;2024-03-23T10:57:30;8.30;;;5.10;;
20008;SDS011;10165;42.662;23.260;2024-03-23T11:00:01;10.60;;;5.07;;
20008;SDS011;10165;42.662;23.260;2024-03-23T11:02:28;9.37;;;5.00;;
20008;SDS011;10165;42.662;23.260;2024-03-23T11:04:55;9.47;;;4.20;;
20008;SDS011;10165;42.662;23.260;2024-03-23T11:09:52;6.63;;;3.87;;
20008;SDS011;10165;42.662;23.260;2024-03-23T11:14:51;9.47;;;3.90;;
20008;SDS011;10165;42.662;23.260;2024-03-23T11:17:18;12.23;;;4.27;;
20008;SDS011;10165;42.662;23.260;2024-03-23T11:19:46;5.53;;;4.00;;
20008;SDS011;10165;42.662;23.260;2024-03-23T11:25:15;6.87;;;4.07;;
20008;SDS011;10165;42.662;23.260;2024-03-23T11:27:41;5.43;;;3.93;;
20008;SDS011;10165;42.662;23.260;2024-03-23T11:30:26;5.87;;;3.87;;
20008;SDS011;10165;42.662;23.260;2024-03-23T11:32:56;3.70;;;2.30;;
20008;SDS011;10165;42.662;23.260;2024-03-23T11:35:27;3.03;;;2.00;;
20008;SDS011;10165;42.662;23.260;2024-03-23T11:38:06;3.90;;;1.83;;
20008;SDS011;10165;42.662;23.260;2024-03-23T11:40:33;2.23;;;2.00;;
20008;SDS011;10165;42.662;23.260;2024-03-23T11:43:00;4.33;;;1.87;;
20008;SDS011;10165;42.662;23.260;2024-03-23T11:45:28;3.70;;;2.00;;
20008;SDS011;10165;42.662;23.260;2024-03-23T11:48:10;3.67;;;2.00;;
20008;SDS011;10165;42.662;23.260;2024-03-23T11:50:43;6.00;;;2.27;;
20008;SDS011;10165;42.662;23.260;2024-03-23T11:53:12;2.47;;;1.90;;
20008;SDS011;10165;42.662;23.260;2024-03-23T11:55:41;2.10;;;1.80;;
20008;SDS011;10165;42.662;23.260;2024-03-23T11:58:18;2.77;;;1.70;;
20008;SDS011;10165;42.662;23.260;2024-03-23T12:00:51;2.03;;;1.40;;
20008;SDS011;10165;42.662;23.260;2024-03-23T12:03:23;5.10;;;1.50;;
20008;SDS011;10165;42.662;23.260;2024-03-23T12:05:57;3.10;;;1.40;;
20008;SDS011;10165;42.662;23.260;2024-03-23T12:08:34;1.23;;;1.13;;
20008;SDS011;10165;42.662;23.260;2024-03-23T12:13:32;1.80;;;1.13;;
20008;SDS011;10165;42.662;23.260;2024-03-23T12:18:40;3.87;;;1.30;;
20008;SDS011;10165;42.662;23.260;2024-03-23T12:21:07;4.20;;;1.57;;
20008;SDS011;10165;42.662;23.260;2024-03-23T12:23:33;1.67;;;1.30;;
20008;SDS011;10165;42.662;23.260;2024-03-23T12:25:59;3.73;;;1.13;;
20008;SDS011;10165;42.662;23.260;2024-03-23T12:28:25;1.40;;;1.30;;
20008;SDS011;10165;42.662;23.260;2024-03-23T12:30:51;2.73;;;1.17;;
20008;SDS011;10165;42.662;23.260;2024-03-23T12:33:20;1.23;;;1.13;;
20008;SDS011;10165;42.662;23.260;2024-03-23T12:35:46;7.13;;;1.50;;
20008;SDS011;10165;42.662;23.260;2024-03-23T12:38:15;1.67;;;1.20;;
20008;SDS011;10165;42.662;23.260;2024-03-23T12:40:41;2.27;;;1.40;;
20008;SDS011;10165;42.662;23.260;2024-03-23T12:43:07;2.63;;;1.43;;
20008;SDS011;10165;42.662;23.260;2024-03-23T12:45:33;1.33;;;1.23;;
20008;SDS011;10165;42.662;23.260;2024-03-23T12:47:59;2.80;;;1.50;;
20008;SDS011;10165;42.662;23.260;2024-03-23T12:50:24;1.03;;;1.03;;
20008;SDS011;10165;42.662;23.260;2024-03-23T12:52:50;1.40;;;1.30;;
20008;SDS011;10165;42.662;23.260;2024-03-23T12:55:16;1.70;;;1.20;;
20008;SDS011;10165;42.662;23.260;2024-03-23T12:57:42;2.33;;;1.27;;
20008;SDS011;10165;42.662;23.260;2024-03-23T13:00:08;1.70;;;1.30;;
20008;SDS011;10165;42.662;23.260;2024-03-23T13:02:37;1.63;;;1.50;;
20008;SDS011;10165;42.662;23.260;2024-03-23T13:05:04;5.80;;;1.50;;
20008;SDS011;10165;42.662;23.260;2024-03-23T13:07:30;1.20;;;1.10;;
20008;SDS011;10165;42.662;23.260;2024-03-23T13:09:56;3.77;;;1.30;;
20008;SDS011;10165;42.662;23.260;2024-03-23T13:12:22;2.93;;;1.33;;
20008;SDS011;10165;42.662;23.260;2024-03-23T13:14:48;0.90;;;0.90;;
20008;SDS011;10165;42.662;23.260;2024-03-23T13:17:14;3.87;;;1.40;;
20008;SDS011;10165;42.662;23.260;2024-03-23T13:19:40;10.50;;;1.47;;
20008;SDS011;10165;42.662;23.260;2024-03-23T13:22:06;1.20;;;1.10;;
20008;SDS011;10165;42.662;23.260;2024-03-23T13:24:31;0.83;;;0.77;;
20008;SDS011;10165;42.662;23.260;2024-03-23T13:26:57;1.53;;;1.20;;
20008;SDS011;10165;42.662;23.260;2024-03-23T13:29:24;3.87;;;0.90;;
20008;SDS011;10165;42.662;23.260;2024-03-23T13:31:50;1.33;;;1.23;;
20008;SDS011;10165;42.662;23.260;2024-03-23T13:34:17;1.47;;;1.37;;
20008;SDS011;10165;42.662;23.260;2024-03-23T13:36:44;2.07;;;1.50;;
20008;SDS011;10165;42.662;23.260;2024-03-23T13:39:10;1.80;;;1.40;;
20008;SDS011;10165;42.662;23.260;2024-03-23T13:41:43;1.97;;;1.37;;
20008;SDS011;10165;42.662;23.260;2024-03-23T13:44:13;1.87;;;1.40;;
20008;SDS011;10165;42.662;23.260;2024-03-23T13:46:40;5.30;;;1.40;;
20008;SDS011;10165;42.662;23.260;2024-03-23T13:49:26;3.03;;;1.17;;
20008;SDS011;10165;42.662;23.260;2024-03-23T13:51:54;1.50;;;1.37;;
20008;SDS011;10165;42.662;23.260;2024-03-23T13:54:20;2.27;;;1.20;;
20008;SDS011;10165;42.662;23.260;2024-03-23T13:56:50;2.47;;;1.53;;
20008;SDS011;10165;42.662;23.260;2024-03-23T13:59:16;1.70;;;1.47;;
20008;SDS011;10165;42.662;23.260;2024-03-23T14:01:42;3.10;;;1.47;;
20008;SDS011;10165;42.662;23.260;2024-03-23T14:04:09;2.87;;;1.60;;
20008;SDS011;10165;42.662;23.260;2024-03-23T14:06:35;2.53;;;1.37;;
20008;SDS011;10165;42.662;23.260;2024-03-23T14:09:00;2.60;;;1.57;;
20008;SDS011;10165;42.662;23.260;2024-03-23T14:11:26;2.17;;;1.30;;
20008;SDS011;10165;42.662;23.260;2024-03-23T14:13:53;1.50;;;1.40;;
20008;SDS011;10165;42.662;23.260;2024-03-23T14:16:20;5.10;;;1.77;;
20008;SDS011;10165;42.662;23.260;2024-03-23T14:18:46;2.27;;;2.07;;
20008;SDS011;10165;42.662;23.260;2024-03-23T14:21:12;4.93;;;2.17;;
20008;SDS011;10165;42.662;23.260;2024-03-23T14:23:38;2.97;;;1.60;;
20008;SDS011;10165;42.662;23.260;2024-03-23T14:26:06;5.60;;;2.00;;
20008;SDS011;10165;42.662;23.260;2024-03-23T14:28:32;2.07;;;1.57;;
20008;SDS011;10165;42.662;23.260;2024-03-23T14:30:58;3.43;;;2.10;;
20008;SDS011;10165;42.662;23.260;2024-03-23T14:33:24;1.50;;;1.40;;
20008;SDS011;10165;42.662;23.260;2024-03-23T14:35:56;2.67;;;1.70;;
20008;SDS011;10165;42.662;23.260;2024-03-23T14:38:22;2.57;;;1.83;;
20008;SDS011;10165;42.662;23.260;2024-03-23T14:40:48;3.23;;;1.60;;
20008;SDS011;10165;42.662;23.260;2024-03-23T14:43:14;3.63;;;2.77;;
20008;SDS011;10165;42.662;23.260;2024-03-23T14:48:34;2.63;;;2.00;;
20008;SDS011;10165;42.662;23.260;2024-03-23T14:51:01;3.53;;;2.13;;
20008;SDS011;10165;42.662;23.260;2024-03-23T14:53:30;5.50;;;2.00;;
20008;SDS011;10165;42.662;23.260;2024-03-23T14:55:56;3.20;;;2.50;;
20008;SDS011;10165;42.662;23.260;2024-03-23T14:58:22;4.37;;;2.57;;
20008;SDS011;10165;42.662;23.260;2024-03-23T15:00:49;3.37;;;2.00;;
20008;SDS011;10165;42.662;23.260;2024-03-23T15:03:15;1.93;;;1.73;;
20008;SDS011;10165;42.662;23.260;2024-03-23T15:05:41;4.63;;;1.80;;
20008;SDS011;10165;42.662;23.260;2024-03-23T15:08:07;2.50;;;1.90;;
20008;SDS011;10165;42.662;23.260;2024-03-23T15:10:33;2.33;;;2.07;;
20008;SDS011;10165;42.662;23.260;2024-03-23T15:12:58;2.13;;;1.73;;
20008;SDS011;10165;42.662;23.260;2024-03-23T15:15:24;3.57;;;1.60;;
20008;SDS011;10165;42.662;23.260;2024-03-23T15:17:50;2.37;;;1.90;;
20008;SDS011;10165;42.662;23.260;2024-03-23T15:20:16;3.10;;;1.70;;
20008;SDS011;10165;42.662;23.260;2024-03-23T15:22:42;3.73;;;1.93;;
20008;SDS011;10165;42.662;23.260;2024-03-23T15:25:07;3.07;;;1.90;;
20008;SDS011;10165;42.662;23.260;2024-03-23T15:27:36;2.20;;;1.77;;
20008;SDS011;10165;42.662;23.260;2024-03-23T15:30:01;2.17;;;1.93;;
20008;SDS011;10165;42.662;23.260;2024-03-23T15:32:27;6.87;;;2.57;;
20008;SDS011;10165;42.662;23.260;2024-03-23T15:34:53;2.03;;;1.80;;
20008;SDS011;10165;42.662;23.260;2024-03-23T15:37:18;2.93;;;2.40;;
20008;SDS011;10165;42.662;23.260;2024-03-23T15:39:44;3.50;;;2.20;;
20008;SDS011;10165;42.662;23.260;2024-03-23T15:42:09;2.87;;;1.90;;